CheckWX is a tool to help pilots better visualize weather data.  It is not intended as a substitute for an official pre-flight weather briefing.

10:29:18 UTC

DAUL TAF
Laghouat Airport
Laghouat, Algeria
TAF DAUL 260800Z 2609/2618 12014KT CAVOK

Jun-26@
09:00 UTC

Jun-26 @ 09:00 UTC

Jun-26@
18:00 UTC

Jun-26 @ 18:00 UTC

TAF DAUL 260800Z 2609/2618 12014KT CAVOK
Wind
  • 120° at 14 KTS
Conditions
No significant weather
Cloud Levels
  • No significant clouds